To NAV CANADA Home Page Login to a new session Search on AWWS site Feedback and Comments Disclaimer Vers la page française équivalente Tips FAQ What's new on the site To the Forecasts and Observations / NOTAM section To "File a Flight Plan" website Publications and other links Update of the User's profile FIC Telephone Numbers My Weather Data Folder Route Weather Data Regional Weather Data Local Weather Data To the Forecasts and Observations / NOTAM section
Request Generated 02/27/2017 at 09:27:02 UTC . Weather information available at that time is displayed.

METAR/TAF

If you find any discrepancies between the coded METAR/TAF and the plain language METAR/TAF please use the coded METAR/TAF. LWIS bulletins are not decoded in plain language.

TORONTO/LESTER B. PEARSON INTL/ON    

METAR CYYZ 270900Z 23013KT 15SM FEW070 03/M06 A3005 RMK AC1 SLP183=
METAR
LOCATION
CYYZ - TORONTO/LESTER B. PEARSON INTL/ON
DATE - TIME
27 FEBRUARY 2017 - 0900 UTC
WIND
230 TRUE @ 13  KNOTS
VISIBILITY
15 STAT.  MILES
RUNWAY VISUAL RANGE
WEATHER
CLOUDINESS
FEW CLOUDS (1/8 - 2/8) 7000  FT
TEMP / DEWPOINT
3 C / -6 C
ALTIMETER
30.05 IN HG
RECENT WEATHER
WIND SHEAR

METAR CYYZ 270800Z 23014KT 15SM FEW050 FEW080 03/M06 A3003 RMK CU1AC1 CU TR SLP178=
METAR
LOCATION
CYYZ - TORONTO/LESTER B. PEARSON INTL/ON
DATE - TIME
27 FEBRUARY 2017 - 0800 UTC
WIND
230 TRUE @ 14  KNOTS
VISIBILITY
15 STAT.  MILES
RUNWAY VISUAL RANGE
WEATHER
CLOUDINESS
FEW CLOUDS (1/8 - 2/8) 5000  FT
FEW CLOUDS (1/8 - 2/8) 8000  FT
TEMP / DEWPOINT
3 C / -6 C
ALTIMETER
30.03 IN HG
RECENT WEATHER
WIND SHEAR

METAR CYYZ 270700Z 24014G20KT 15SM FEW085 03/M06 A3002 RMK AC1 SLP173=
METAR
LOCATION
CYYZ - TORONTO/LESTER B. PEARSON INTL/ON
DATE - TIME
27 FEBRUARY 2017 - 0700 UTC
WIND
240 TRUE @ 14  KNOTS
GUSTS
20 KNOTS
VISIBILITY
15 STAT.  MILES
RUNWAY VISUAL RANGE
WEATHER
CLOUDINESS
FEW CLOUDS (1/8 - 2/8) 8500  FT
TEMP / DEWPOINT
3 C / -6 C
ALTIMETER
30.02 IN HG
RECENT WEATHER
WIND SHEAR

TAF CYYZ 270838Z 2709/2812 22012KT P6SM SCT080 TEMPO 2709/2710 P6SM -SHSN BKN080 FM271000 25012G22KT P6SM FEW020 SCT050 TEMPO 2713/2719 BKN020 FM271900 25012KT P6SM BKN030 TEMPO 2719/2724 P6SM -SHRA BECMG 2722/2724 22008KT FM280500 VRB03KT 6SM -DZ BR BKN015 RMK NXT FCST BY 271200Z=
TAF
LOCATION

CYYZ - TORONTO/LESTER B. PEARSON INTL/ON
VALIDITY [UTC]
27 FEB - 0838 to
28 FEB - 1200
 
TIMES
[UTC]
WIND
[DEGREES TRUE]
VISIBILITY
[STAT. MILES]
WEATHER
CLOUDINESS
[FEET AGL]
 
27 FEB - 0900 to
27 FEB - 1000
220 @ 12 KNOTS
6+
NIL
8000 SCATTERED
TEMPORARY CHANGES
27 FEB - 0900 to
27 FEB - 1000
 
6+
LIGHT SNOW SHOWER
8000 BROKEN
 
27 FEB - 1000 to
27 FEB - 1900
250 @ 12 KNOTS
GUSTS 22 KNOTS
6+
NIL
2000 FEW
5000 SCATTERED
TEMPORARY CHANGES
27 FEB - 1300 to
27 FEB - 1900
 
 
 
2000 BROKEN
 
27 FEB - 1900 to
28 FEB - 0500
250 @ 12 KNOTS
6+
NIL
3000 BROKEN
TEMPORARY CHANGES
27 FEB - 1900 to
28 FEB - 0000
 
6+
LIGHT RAIN SHOWER
 
BECOMING
27 FEB - 2200 to
28 FEB - 0000
220 @ 8 KNOTS
 
 
 
 
28 FEB - 0500 to
28 FEB - 1200
VARIABLE @ 3 KNOTS
6
LIGHT DRIZZLE
MIST
1500 BROKEN
REMARKS
THE NEXT FORECAST WILL BE ISSUED BY 1200 UTC ON DAY 27


Your time UTC time
Weather data provided by Environment Canada and NAV CANADA